»·PEaware :: DAL1948 KBOI-KSLC

DAL1948 :: KBOI-KSLC

FLIGHT INFORMATION

Flight Status: Arrived
Operator:
Delta Air Lines
More flights by this operator :: More flights under this callsign
Pilot: Andre N. (13929)
Aircraft: BOEING 737-800
(B738)
More flights by this aircraft type
Origin: KBOI Boise Air Terminal/Gowen
United States
Destination: KSLC Salt Lake City Intl
United States
More flights between these airports :: More routes between these airports
Route: BOI3 BOI ROARR BYI SKEES5
File this flight plan on PilotEdge
Remarks:
Altitude:
(Current/Filed)
33,000ft
Speed:
(Current/Filed)
450kts
Departed: 28-Mar-18 03:43 PM
Arrived: 28-Mar-18 04:39 PM
Distance/Time
Traveled:
251nm/0:56
Distance/Time
To Go:
Arrived

Flight Plot

Page will automatically refresh every two minutes.

Flight plan parsing failed; only flown route is shown


Map Options




Map Legend


Flown Route
Filed Route
Departure Airport
Arrival Airport
Navaid (VOR, NDB)
Fix

Horizontal Profiles

Position Reports

Time Latitude Longitude Heading Altitude Ground
Speed
28-Mar-18 15:14 43.566993 -116.217788 292 2879ft 0kts
28-Mar-18 15:15 43.566993 -116.217788 292 2879ft 0kts
28-Mar-18 15:16 43.566993 -116.217788 292 2879ft 0kts
28-Mar-18 15:17 43.566993 -116.217788 292 2879ft 0kts
28-Mar-18 15:18 43.566993 -116.217788 292 2879ft 0kts
28-Mar-18 15:19 43.566993 -116.217788 292 2879ft 0kts
28-Mar-18 15:20 43.566993 -116.217788 292 2879ft 0kts
28-Mar-18 15:21 43.566993 -116.217788 292 2879ft 0kts
28-Mar-18 15:22 43.566993 -116.217788 292 2879ft 0kts
28-Mar-18 15:23 43.566993 -116.217788 292 2879ft 0kts
28-Mar-18 15:24 43.566993 -116.217788 292 2879ft 0kts
28-Mar-18 15:25 43.566993 -116.217788 292 2879ft 0kts
28-Mar-18 15:26 43.566993 -116.217788 292 2879ft 0kts
28-Mar-18 15:27 43.566993 -116.217788 292 2879ft 0kts
28-Mar-18 15:28 43.566993 -116.217788 292 2879ft 0kts
28-Mar-18 15:29 43.566993 -116.217788 292 2879ft 0kts
28-Mar-18 15:30 43.566873 -116.217390 293 2879ft 2kts
28-Mar-18 15:31 43.567234 -116.217157 175 2879ft 1kts
28-Mar-18 15:32 43.567239 -116.217158 175 2879ft 0kts
28-Mar-18 15:33 43.567239 -116.217158 175 2879ft 0kts
28-Mar-18 15:34 43.567238 -116.217158 175 2879ft 0kts
28-Mar-18 15:35 43.567238 -116.217158 175 2879ft 0kts
28-Mar-18 15:36 43.567238 -116.217158 175 2879ft 0kts
28-Mar-18 15:37 43.566590 -116.217084 175 2879ft 0kts
28-Mar-18 15:38 43.564210 -116.215648 114 2879ft 24kts
28-Mar-18 15:39 43.559942 -116.203148 115 2879ft 13kts
28-Mar-18 15:40 43.559523 -116.202167 148 2879ft 0kts
28-Mar-18 15:41 43.559078 -116.202234 212 2879ft 10kts
28-Mar-18 15:42 43.568147 -116.230729 300 3280ft 176kts
28-Mar-18 15:43 43.587584 -116.297472 290 6816ft 191kts
28-Mar-18 15:44 43.605165 -116.358139 324 9769ft 194kts
28-Mar-18 15:45 43.647517 -116.331463 77 12841ft 239kts
28-Mar-18 15:46 43.630337 -116.237598 102 15514ft 267kts
28-Mar-18 15:47 43.603568 -116.135801 112 16280ft 311kts
28-Mar-18 15:48 43.559069 -116.023708 113 18498ft 352kts
28-Mar-18 15:49 43.510624 -115.903875 113 21123ft 368kts
28-Mar-18 15:50 43.459755 -115.778531 113 23152ft 395kts
28-Mar-18 15:51 43.402709 -115.638418 113 24338ft 443kts
28-Mar-18 15:52 43.341739 -115.490112 113 26304ft 460kts
28-Mar-18 15:53 43.278391 -115.338239 117 28334ft 472kts
28-Mar-18 15:54 43.210398 -115.192847 118 29690ft 490kts
28-Mar-18 15:55 43.137110 -115.039296 117 31672ft 488kts
28-Mar-18 15:56 43.064341 -114.886888 117 33081ft 494kts
28-Mar-18 15:57 42.994001 -114.739092 117 33095ft 524kts
28-Mar-18 15:58 42.915222 -114.573504 117 33144ft 527kts
28-Mar-18 15:59 42.839639 -114.414119 117 33126ft 526kts
28-Mar-18 16:00 42.764392 -114.254777 117 33122ft 526kts
28-Mar-18 16:01 42.687358 -114.091229 117 33124ft 525kts
28-Mar-18 16:02 42.609992 -113.926709 117 33127ft 525kts
28-Mar-18 16:03 42.518004 -113.775344 133 33105ft 534kts
28-Mar-18 16:04 42.413139 -113.639258 132 32507ft 528kts
28-Mar-18 16:05 42.309434 -113.502205 132 30711ft 530kts
28-Mar-18 16:06 42.205325 -113.364885 132 28912ft 530kts
28-Mar-18 16:07 42.103198 -113.230390 133 27116ft 529kts
28-Mar-18 16:08 42.003729 -113.099899 134 25287ft 493kts
28-Mar-18 16:09 41.910672 -112.978501 134 23509ft 460kts
28-Mar-18 16:10 41.825334 -112.867592 134 21894ft 450kts
28-Mar-18 16:11 41.765973 -112.790703 134 20748ft 442kts
28-Mar-18 16:12 41.683722 -112.684527 134 19136ft 431kts
28-Mar-18 16:13 41.599542 -112.576286 134 17453ft 419kts
28-Mar-18 16:14 41.517022 -112.473038 143 16967ft 414kts
28-Mar-18 16:15 41.419920 -112.395687 153 16483ft 400kts
28-Mar-18 16:16 41.332711 -112.335800 153 15341ft 365kts
28-Mar-18 16:17 41.254726 -112.281087 153 14364ft 345kts
28-Mar-18 16:18 41.172800 -112.220329 151 13430ft 338kts
28-Mar-18 16:19 41.094623 -112.160783 151 12472ft 319kts
28-Mar-18 16:20 41.013786 -112.130730 172 11560ft 295kts
28-Mar-18 16:21 40.937250 -112.115284 173 10955ft 262kts
28-Mar-18 16:22 40.871000 -112.103938 178 10978ft 253kts
28-Mar-18 16:23 40.808712 -112.097052 178 10751ft 245kts
28-Mar-18 16:24 40.744360 -112.089826 178 10032ft 230kts
28-Mar-18 16:25 40.682963 -112.082808 178 9861ft 224kts
28-Mar-18 16:26 40.622303 -112.075892 178 9864ft 225kts
28-Mar-18 16:27 40.560985 -112.068316 174 9864ft 228kts
28-Mar-18 16:28 40.498505 -112.057722 175 9864ft 228kts
28-Mar-18 16:29 40.442924 -112.029313 118 9369ft 232kts
28-Mar-18 16:30 40.460488 -111.961840 17 8504ft 217kts
28-Mar-18 16:31 40.518057 -111.960974 351 7635ft 209kts
28-Mar-18 16:32 40.574552 -111.968666 351 6873ft 206kts
28-Mar-18 16:33 40.629846 -111.975809 351 6220ft 198kts
28-Mar-18 16:34 40.682784 -111.981553 349 5897ft 179kts
28-Mar-18 16:35 40.726361 -111.989027 348 5107ft 148kts
28-Mar-18 16:36 40.766476 -111.994369 351 4487ft 160kts
28-Mar-18 16:37 40.799038 -111.998343 356 4235ft 47kts
28-Mar-18 16:38 40.801539 -111.996618 126 4235ft 4kts
28-Mar-18 16:39 40.796937 -111.995816 175 4235ft 18kts
28-Mar-18 16:40 40.791662 -111.994258 175 4235ft 18kts
28-Mar-18 16:41 40.787608 -111.992866 85 4235ft 12kts
28-Mar-18 16:42 40.788149 -111.987593 58 4235ft 12kts
28-Mar-18 16:43 40.788686 -111.985513 83 4235ft 0kts
28-Mar-18 16:44 40.788686 -111.985513 84 4235ft 0kts
28-Mar-18 16:45 40.788686 -111.985513 84 4235ft 0kts

Navigation Log

Ident Type
Flight plan parsing failed, navigation log unavailable